• Join FlightAware (Why Join?)
  • Login
  • US Flag 
01:19PM EDT


 

Airport Tracker/Info


-or-


 

Live Flight TrackerFlight Track Log ✈ FSR500 ✈ 07-Jan-2013 ✈ KCMI - KPDK

Flight Track Log - Related Links

Times and Time Zones

All times are in EST time to prevent confusion due to time zone crossing. See the FSR500 flight status page for this flight to view local times or setup timezone preferences in your user account.

Time Position Orientation Groundspeed Altitude Reporting Facility
EST Latitude Longitude Course Direction KTS MPH feet Rate Location/Type
08:51AM 39.8900 -88.1761 153° Southeast 266 306 6,600  Level Indianapolis Center
08:52AM 39.8772 -88.1611 138° Southeast 261 300 7,800 2,700 Climbing Chicago Center
08:53AM 39.8122 -88.1181 153° Southeast 280 322 10,300 2,580 Climbing Chicago Center
08:53AM 39.7478 -88.0803 156° South 306 352 12,100 2,700 Climbing Indianapolis Center
08:54AM 39.6581 -88.0206 153° Southeast 340 391 14,800 3,000 Climbing Indianapolis Center
08:55AM 39.5595 -87.9645 157° South  Level FlightAware Approximate
08:55AM 39.5606 -87.9581 154° Southeast 383 441 18,100  Level Indianapolis Center
08:56AM 39.4706 -87.8915 153° Southeast  Level FlightAware Approximate
08:56AM 39.4544 -87.8894 153° Southeast 418 481 20,900  Level Indianapolis Center
08:57AM 39.3765 -87.8286 153° Southeast  Level FlightAware Approximate
08:57AM 39.3528 -87.8189 152° Southeast 423 487 23,700  Level Indianapolis Center
08:58AM 39.2447 -87.7506 154° Southeast 423 487 26,500 2,460 Climbing Indianapolis Center
08:59AM 39.1367 -87.6800 153° Southeast 423 487 28,700 1,800 Climbing Indianapolis Center
09:00AM 39.0244 -87.6067 153° Southeast 434 499 30,100 1,500 Climbing Indianapolis Center
09:01AM 38.9122 -87.5364 154° Southeast 446 513 31,800 1,680 Climbing Indianapolis Center
09:02AM 38.7978 -87.4633 154° Southeast 451 519 33,500 1,620 Climbing Indianapolis Center
09:03AM 38.6875 -87.3911 153° Southeast 457 526 35,100 1,500 Climbing Indianapolis Center
09:04AM 38.5750 -87.3214 154° Southeast 457 526 36,600 1,440 Climbing Indianapolis Center
09:05AM 38.4667 -87.2547 154° Southeast 452 520 38,000 1,260 Climbing Indianapolis Center
09:06AM 38.3400 -87.1714 153° Southeast 452 520 39,200 960 Climbing Indianapolis Center
09:07AM 38.2333 -87.1053 154° Southeast 444 511 40,000 720 Climbing Indianapolis Center
09:08AM 38.1350 -87.0478 155° Southeast 439 505 40,700 480 Climbing Indianapolis Center
09:09AM 38.0286 -86.9794 153° Southeast 434 499 41,000 120 Climbing Indianapolis Center
09:10AM 37.9158 -86.9083 154° Southeast 440 506 41,000 -660 Level Indianapolis Center
09:11AM 37.8011 -86.8375 154° Southeast 450 518 39,700 -1,620 Descending Indianapolis Center
09:12AM 37.6883 -86.7694 154° Southeast 450 518 37,800 -1,920 Descending Indianapolis Center
09:14AM 37.4975 -86.6531 154° Southeast 454 522 34,700 -1,800 Descending Memphis Center
09:15AM 37.3850 -86.5853 154° Southeast 448 516 33,100 -900 Descending Memphis Center
09:16AM 37.2703 -86.5125 153° Southeast 454 522 33,000 -60 Descending Memphis Center
09:17AM 37.1511 -86.4375 153° Southeast 460 529 33,000 -300 Level Memphis Center
09:18AM 37.0450 -86.3778 156° South 465 535 32,400 -720 Descending Memphis Center
09:19AM 36.9303 -86.3056 153° Southeast 465 535 31,600 -720 Descending Memphis Center
09:20AM 36.8156 -86.2364 154° Southeast 465 535 31,000 -300 Descending Memphis Center
09:21AM 36.6964 -86.1647 154° Southeast 465 535 31,000  Level Memphis Center
09:22AM 36.5794 -86.0958 155° Southeast 465 535 31,000  Level Memphis Center
09:23AM 36.4475 -86.0178 155° Southeast 470 541 31,000  Level Memphis Center
09:24AM 36.3261 -85.9469 155° Southeast 470 541 31,000  Level Memphis Center
09:25AM 36.2069 -85.8764 154° Southeast 470 541 31,000  Level Memphis Center
09:26AM 36.0983 -85.8156 156° South 470 541 31,000  Level Memphis Center
09:27AM 35.9811 -85.7450 154° Southeast 470 541 31,000  Level Memphis Center
09:29AM 35.7667 -85.6203 155° Southeast 471 542 31,000  Level Atlanta Center
09:30AM 35.6506 -85.5517 154° Southeast 471 542 31,000  Level Atlanta Center
09:31AM 35.5344 -85.4833 154° Southeast 471 542 31,000 -600 Level Atlanta Center
09:32AM 35.4164 -85.4175 156° South 466 536 29,900 -1,320 Descending Atlanta Center
09:33AM 35.3025 -85.3519 155° Southeast 460 529 28,400 -1,500 Descending Atlanta Center
09:34AM 35.1883 -85.2867 155° Southeast 460 529 26,900 -1,500 Descending Atlanta Center
09:35AM 35.0761 -85.2214 155° Southeast 455 524 25,500 -1,560 Descending Atlanta Center
09:36AM 34.9683 -85.1617 156° South 450 518 23,800 -2,040 Descending Atlanta Center
09:37AM 34.8558 -85.1475 174° South 415 478 21,500 -2,340 Descending Atlanta Center
09:38AM 34.7431 -85.1458 179° South 410 472 19,200 -2,100 Descending Atlanta Center
09:39AM 34.6283 -85.1394 177° South 391 450 17,300 -1,980 Descending Atlanta Center
09:40AM 34.5242 -85.1153 169° South 383 441 15,300 -2,040 Descending Atlanta Center
09:41AM 34.4350 -85.0489 148° Southeast 370 426 13,300 -2,100 Descending Atlanta Center
09:42AM 34.3522 -84.9822 146° Southeast 358 412 11,200 -1,860 Descending Atlanta Center
09:43AM 34.2794 -84.9236 146° Southeast 330 380 9,600 -1,560 Descending Atlanta Center
09:44AM 34.2108 -84.8728 149° Southeast 298 343 8,100 -900 Descending Atlanta Center
09:45AM 34.1467 -84.8244 148° Southeast 283 326 7,900 -600 Descending Atlanta Center
09:46AM 34.1053 -84.7464 123° Southeast 269 310 7,000 -1,080 Descending Atlanta Center
09:47AM 34.0681 -84.6708 121° Southeast 269 310 5,800 -1,020 Descending Atlanta Center
09:48AM 34.0350 -84.6078 122° Southeast 257 296 5,000 -420 Descending Atlanta Center
09:49AM 33.9978 -84.5350 122° Southeast 257 296 5,000 -60 Level Atlanta Center
09:50AM 33.9606 -84.4619 122° Southeast 257 296 4,900 -900 Descending Atlanta Center
09:51AM 33.9211 -84.3892 123° Southeast 257 296 3,300 -1,320 Descending Atlanta Center
09:51AM 33.8833 -84.3500 139° Southeast 220 253 2,700 -840 Descending Atlanta TRACON
09:52AM 33.8500 -84.3333 157° South 161 185 1,900 -840 Descending Atlanta TRACON
09:54AM 33.8667 -84.3000 23° Northeast  Level FlightAware Approximate
10:01AM 33.8756 -84.3020 23° Northeast  Level Estimated